Time,TemperatureF,DewpointF,PressureIn,WindDirection,WindDirectionDegrees,WindSpeedMPH,WindSpeedGustMPH,Humidity,HourlyPrecipIn,Conditions,Clouds,dailyrainin,SoftwareType,DateUTC
2013-07-06 00:01:00,67.3,65.8,28.08,East,90,1.1,2.0,95,0.00,,---,0.00,VWS V14.01,2013-07-06 04:01:00,
2013-07-06 00:02:00,67.3,65.8,28.08,SSE,158,0.0,0.0,95,0.00,,---,0.00,VWS V14.01,2013-07-06 04:02:00,
2013-07-06 00:07:00,67.3,65.8,28.05,NE,45,0.9,0.9,95,0.00,,---,0.00,VWS V14.01,2013-07-06 04:07:00,
2013-07-06 00:12:00,67.3,65.8,28.05,East,90,1.3,2.9,95,0.00,,---,0.00,VWS V14.01,2013-07-06 04:12:00,
2013-07-06 00:17:00,67.3,65.8,28.05,SSW,202,1.6,2.2,95,0.00,,---,0.00,VWS V14.01,2013-07-06 04:17:00,
2013-07-06 00:22:00,67.3,65.8,28.05,SE,135,0.0,0.9,95,0.00,,---,0.00,VWS V14.01,2013-07-06 04:22:00,
2013-07-06 00:27:00,67.1,65.6,28.05,NNW,338,1.3,1.3,95,0.00,,---,0.00,VWS V14.01,2013-07-06 04:27:00,
2013-07-06 00:32:00,67.1,65.6,28.05,SE,135,0.0,0.0,95,0.00,,---,0.00,VWS V14.01,2013-07-06 04:32:00,
2013-07-06 00:37:00,67.1,65.6,28.08,ESE,112,0.0,0.9,95,0.00,,---,0.00,VWS V14.01,2013-07-06 04:37:00,
2013-07-06 00:42:00,67.1,65.6,28.08,East,90,1.6,2.5,95,0.00,,---,0.00,VWS V14.01,2013-07-06 04:42:00,
2013-07-06 00:47:00,66.9,65.4,28.08,SE,135,1.1,1.1,95,0.00,,---,0.00,VWS V14.01,2013-07-06 04:47:00,
2013-07-06 00:52:00,66.9,65.4,28.05,ESE,112,1.1,1.1,95,0.00,,---,0.00,VWS V14.01,2013-07-06 04:52:00,
2013-07-06 00:57:00,66.9,65.4,28.05,East,90,0.0,0.0,95,0.00,,---,0.00,VWS V14.01,2013-07-06 04:57:00,
2013-07-06 01:02:00,66.9,65.4,28.05,ESE,112,0.0,2.5,95,0.00,,---,0.00,VWS V14.01,2013-07-06 05:02:00,
2013-07-06 01:07:00,66.9,65.4,28.08,ESE,112,1.6,2.2,95,0.00,,---,0.00,VWS V14.01,2013-07-06 05:07:00,
2013-07-06 01:12:00,66.9,65.4,28.08,East,90,0.0,1.3,95,0.00,,---,0.00,VWS V14.01,2013-07-06 05:12:00,
2013-07-06 01:17:00,66.9,65.4,28.08,ENE,68,0.0,0.0,95,0.00,,---,0.00,VWS V14.01,2013-07-06 05:17:00,
2013-07-06 01:22:00,66.9,65.4,28.08,SSE,158,0.0,0.0,95,0.00,,---,0.00,VWS V14.01,2013-07-06 05:22:00,
2013-07-06 01:27:00,66.9,65.4,28.08,SE,135,0.0,0.0,95,0.00,,---,0.00,VWS V14.01,2013-07-06 05:27:00,
2013-07-06 01:32:00,66.9,65.4,28.08,South,180,1.1,1.1,95,0.00,,---,0.00,VWS V14.01,2013-07-06 05:32:00,
2013-07-06 01:37:00,66.7,65.3,28.08,East,90,2.7,2.7,95,0.00,,---,0.00,VWS V14.01,2013-07-06 05:37:00,
2013-07-06 01:42:00,66.7,65.3,28.08,SE,135,0.0,0.0,95,0.00,,---,0.00,VWS V14.01,2013-07-06 05:42:00,
2013-07-06 01:48:00,66.7,65.3,28.08,ENE,68,1.1,1.1,95,0.00,,---,0.00,VWS V14.01,2013-07-06 05:48:00,
2013-07-06 01:53:00,66.7,65.3,28.05,SSE,158,0.0,0.0,95,0.00,,---,0.00,VWS V14.01,2013-07-06 05:53:00,
2013-07-06 01:58:00,66.7,65.3,28.05,SE,135,1.1,1.1,95,0.00,,---,0.00,VWS V14.01,2013-07-06 05:58:00,
2013-07-06 02:03:00,66.7,65.3,28.05,SE,135,0.0,0.0,95,0.00,,---,0.00,VWS V14.01,2013-07-06 06:03:00,
2013-07-06 02:08:00,66.7,65.3,28.08,East,90,0.0,1.1,95,0.00,,---,0.00,VWS V14.01,2013-07-06 06:08:00,
2013-07-06 02:13:00,66.7,65.3,28.08,West,270,1.6,1.6,95,0.00,,---,0.00,VWS V14.01,2013-07-06 06:13:00,
2013-07-06 02:18:00,66.7,65.3,28.08,ESE,112,1.6,1.6,95,0.00,,---,0.00,VWS V14.01,2013-07-06 06:18:00,
2013-07-06 02:23:00,66.7,65.3,28.05,SSE,158,1.1,1.1,95,0.00,,---,0.00,VWS V14.01,2013-07-06 06:23:00,
2013-07-06 02:28:00,66.7,65.3,28.05,SSE,158,0.0,0.0,95,0.00,,---,0.00,VWS V14.01,2013-07-06 06:28:00,
2013-07-06 02:33:00,66.7,65.3,28.05,SE,135,0.0,0.0,95,0.00,,---,0.00,VWS V14.01,2013-07-06 06:33:00,
2013-07-06 02:39:00,66.7,65.3,28.05,SSE,158,0.0,0.0,95,0.00,,---,0.00,VWS V14.01,2013-07-06 06:39:00,
2013-07-06 02:44:00,66.7,65.3,28.05,South,180,1.1,1.6,95,0.00,,---,0.00,VWS V14.01,2013-07-06 06:44:00,
2013-07-06 02:49:00,66.7,65.3,28.05,SSE,158,0.0,0.0,95,0.00,,---,0.00,VWS V14.01,2013-07-06 06:49:00,
2013-07-06 02:54:00,66.7,65.3,28.05,SSE,158,1.6,3.6,95,0.00,,---,0.00,VWS V14.01,2013-07-06 06:54:00,
2013-07-06 02:59:00,66.6,65.1,28.05,ENE,68,0.9,1.3,95,0.00,,---,0.00,VWS V14.01,2013-07-06 06:59:00,
2013-07-06 03:04:00,66.6,65.1,28.05,SE,135,1.3,2.0,95,0.00,,---,0.00,VWS V14.01,2013-07-06 07:04:00,
2013-07-06 03:09:00,66.6,65.1,28.05,SSE,158,0.9,0.9,95,0.00,,---,0.00,VWS V14.01,2013-07-06 07:09:00,
2013-07-06 03:14:00,66.6,65.1,28.05,ESE,112,0.0,0.0,95,0.00,,---,0.00,VWS V14.01,2013-07-06 07:14:00,
2013-07-06 03:20:00,66.6,65.1,28.05,SE,135,0.0,1.3,95,0.00,,---,0.00,VWS V14.01,2013-07-06 07:20:00,
2013-07-06 03:25:00,66.6,65.1,28.05,ENE,68,0.0,0.0,95,0.00,,---,0.00,VWS V14.01,2013-07-06 07:25:00,
2013-07-06 03:30:00,66.6,65.1,28.05,SSE,158,1.6,1.6,95,0.00,,---,0.00,VWS V14.01,2013-07-06 07:30:00,
2013-07-06 03:35:00,66.6,65.1,28.05,SSE,158,0.0,0.0,95,0.00,,---,0.00,VWS V14.01,2013-07-06 07:35:00,
2013-07-06 03:40:00,66.6,65.1,28.05,SSE,158,0.9,0.9,95,0.00,,---,0.00,VWS V14.01,2013-07-06 07:40:00,
2013-07-06 03:45:00,66.6,65.1,28.05,SSE,158,0.9,0.9,95,0.00,,---,0.00,VWS V14.01,2013-07-06 07:45:00,
2013-07-06 03:50:00,66.6,65.1,28.05,SSE,158,0.0,0.0,95,0.00,,---,0.00,VWS V14.01,2013-07-06 07:50:00,
2013-07-06 03:55:00,66.6,65.1,28.05,SSW,202,1.3,1.3,95,0.00,,---,0.00,VWS V14.01,2013-07-06 07:55:00,
2013-07-06 04:00:00,66.6,65.1,28.05,NNW,338,0.0,0.0,95,0.00,,---,0.00,VWS V14.01,2013-07-06 08:00:00,
2013-07-06 04:05:00,66.6,65.1,28.05,NE,45,0.0,0.0,95,0.00,,---,0.00,VWS V14.01,2013-07-06 08:05:00,
2013-07-06 04:11:00,66.6,65.1,28.05,ENE,68,0.0,0.0,95,0.00,,---,0.00,VWS V14.01,2013-07-06 08:11:00,
2013-07-06 04:16:00,66.6,65.1,28.05,SE,135,0.0,0.0,95,0.00,,---,0.00,VWS V14.01,2013-07-06 08:16:00,
2013-07-06 04:21:00,66.6,65.1,28.05,NW,315,0.0,0.0,95,0.00,,---,0.00,VWS V14.01,2013-07-06 08:21:00,
2013-07-06 04:26:00,66.6,65.1,28.05,WSW,248,0.0,0.0,95,0.00,,---,0.00,VWS V14.01,2013-07-06 08:26:00,
2013-07-06 04:31:00,66.6,65.1,28.05,WSW,248,0.0,0.0,95,0.00,,---,0.00,VWS V14.01,2013-07-06 08:31:00,
2013-07-06 04:36:00,66.6,65.1,28.05,SE,135,0.0,0.0,95,0.00,,---,0.00,VWS V14.01,2013-07-06 08:36:00,
2013-07-06 04:41:00,66.6,65.1,28.05,NNE,22,0.0,0.0,95,0.00,,---,0.00,VWS V14.01,2013-07-06 08:41:00,
2013-07-06 04:46:00,66.6,65.1,28.05,ESE,112,0.0,0.9,95,0.00,,---,0.00,VWS V14.01,2013-07-06 08:46:00,
2013-07-06 04:51:00,66.6,65.1,28.05,SSE,158,0.0,1.1,95,0.00,,---,0.00,VWS V14.01,2013-07-06 08:51:00,
2013-07-06 04:56:00,66.6,65.1,28.05,NE,45,0.0,0.9,95,0.00,,---,0.00,VWS V14.01,2013-07-06 08:56:00,
2013-07-06 05:01:00,66.6,65.1,28.05,NE,45,0.0,0.0,95,0.00,,---,0.00,VWS V14.01,2013-07-06 09:01:00,
2013-07-06 05:06:00,66.6,65.1,28.05,ENE,68,0.0,0.0,95,0.00,,---,0.00,VWS V14.01,2013-07-06 09:06:00,
2013-07-06 05:11:00,66.7,65.3,28.05,ESE,112,0.0,0.0,95,0.00,,---,0.00,VWS V14.01,2013-07-06 09:11:00,
2013-07-06 05:17:00,66.7,65.3,28.05,ESE,112,0.0,0.0,95,0.00,,---,0.00,VWS V14.01,2013-07-06 09:17:00,
2013-07-06 05:22:00,66.7,65.3,28.05,SSE,158,0.0,0.0,95,0.00,,---,0.00,VWS V14.01,2013-07-06 09:22:00,
2013-07-06 05:27:00,66.7,65.3,28.05,East,90,0.0,0.0,95,0.00,,---,0.00,VWS V14.01,2013-07-06 09:27:00,
2013-07-06 05:32:00,66.7,65.3,28.05,NNW,338,0.0,0.9,95,0.00,,---,0.00,VWS V14.01,2013-07-06 09:32:00,
2013-07-06 05:37:00,66.7,65.3,28.05,NNW,338,0.0,0.0,95,0.00,,---,0.00,VWS V14.01,2013-07-06 09:37:00,
2013-07-06 05:42:00,66.7,65.3,28.05,NNW,338,0.0,0.0,95,0.00,,---,0.00,VWS V14.01,2013-07-06 09:42:00,
2013-07-06 05:47:00,66.7,65.3,28.05,ENE,68,0.0,1.6,95,0.00,,---,0.00,VWS V14.01,2013-07-06 09:47:00,
2013-07-06 05:52:00,66.7,65.3,28.05,ENE,68,0.0,0.9,95,0.00,,---,0.00,VWS V14.01,2013-07-06 09:52:00,
2013-07-06 05:57:00,66.7,65.3,28.05,ENE,68,0.0,0.0,95,0.00,,---,0.00,VWS V14.01,2013-07-06 09:57:00,
2013-07-06 06:02:00,66.7,65.3,28.05,NW,315,1.6,1.6,95,0.00,,---,0.00,VWS V14.01,2013-07-06 10:02:00,
2013-07-06 06:07:00,66.7,65.3,28.05,SSE,158,0.0,1.3,95,0.00,,---,0.00,VWS V14.01,2013-07-06 10:07:00,
2013-07-06 06:12:00,66.7,65.3,28.05,SE,135,1.1,1.1,95,0.00,,---,0.00,VWS V14.01,2013-07-06 10:12:00,
2013-07-06 06:18:00,66.7,65.3,28.05,East,90,0.0,0.0,95,0.00,,---,0.00,VWS V14.01,2013-07-06 10:18:00,
2013-07-06 06:23:00,66.7,65.3,28.05,SE,135,0.0,0.0,95,0.00,,---,0.00,VWS V14.01,2013-07-06 10:23:00,
2013-07-06 06:28:00,66.7,65.3,28.05,East,90,0.0,0.0,95,0.00,,---,0.00,VWS V14.01,2013-07-06 10:28:00,
2013-07-06 06:33:00,66.9,65.4,28.05,East,90,0.0,1.3,95,0.00,,---,0.00,VWS V14.01,2013-07-06 10:33:00,
2013-07-06 06:38:00,66.9,65.4,28.05,SSE,158,0.0,0.0,95,0.00,,---,0.00,VWS V14.01,2013-07-06 10:38:00,
2013-07-06 06:43:00,66.9,65.4,28.05,South,180,2.0,2.0,95,0.00,,---,0.00,VWS V14.01,2013-07-06 10:43:00,
2013-07-06 06:48:00,66.9,65.4,28.05,SSE,158,0.0,1.6,95,0.00,,---,0.00,VWS V14.01,2013-07-06 10:48:00,
2013-07-06 06:53:00,66.9,65.4,28.05,East,90,2.0,2.2,95,0.00,,---,0.00,VWS V14.01,2013-07-06 10:53:00,
2013-07-06 06:58:00,66.9,65.4,28.05,South,180,0.0,0.0,95,0.00,,---,0.00,VWS V14.01,2013-07-06 10:58:00,
2013-07-06 07:03:00,66.9,65.4,28.05,SSE,158,0.0,0.0,95,0.00,,---,0.00,VWS V14.01,2013-07-06 11:03:00,
2013-07-06 07:08:00,66.9,65.4,28.05,SSE,158,0.0,0.0,95,0.00,,---,0.00,VWS V14.01,2013-07-06 11:08:00,
2013-07-06 07:14:00,66.9,65.4,28.05,South,180,0.9,0.9,95,0.00,,---,0.00,VWS V14.01,2013-07-06 11:14:00,
2013-07-06 07:19:00,66.9,65.4,28.05,SSE,158,1.3,1.3,95,0.00,,---,0.00,VWS V14.01,2013-07-06 11:19:00,
2013-07-06 07:24:00,66.9,65.4,28.05,East,90,1.1,1.1,95,0.00,,---,0.00,VWS V14.01,2013-07-06 11:24:00,
2013-07-06 07:29:00,66.9,65.4,28.05,East,90,0.0,0.0,95,0.00,,---,0.00,VWS V14.01,2013-07-06 11:29:00,
2013-07-06 07:34:00,66.9,65.4,28.05,East,90,0.9,0.9,95,0.00,,---,0.00,VWS V14.01,2013-07-06 11:34:00,
2013-07-06 07:39:00,66.9,65.4,28.05,East,90,0.0,2.7,95,0.00,,---,0.00,VWS V14.01,2013-07-06 11:39:00,
2013-07-06 07:44:00,66.7,65.3,28.05,South,180,0.0,0.9,95,0.00,,---,0.00,VWS V14.01,2013-07-06 11:44:00,
2013-07-06 07:49:00,66.7,65.3,28.05,SSW,202,0.0,0.9,95,0.00,,---,0.00,VWS V14.01,2013-07-06 11:49:00,
2013-07-06 07:54:00,66.9,65.4,28.05,NW,315,0.0,0.9,95,0.00,,---,0.00,VWS V14.01,2013-07-06 11:54:00,
2013-07-06 07:59:00,66.9,65.4,28.05,SSE,158,1.1,2.2,95,0.00,,---,0.00,VWS V14.01,2013-07-06 11:59:00,
2013-07-06 08:04:00,66.7,65.3,28.05,East,90,0.0,0.0,95,0.00,,---,0.00,VWS V14.01,2013-07-06 12:04:00,
2013-07-06 08:10:00,66.7,65.3,28.05,ESE,112,0.0,0.0,95,0.00,,---,0.00,VWS V14.01,2013-07-06 12:10:00,
2013-07-06 08:15:00,66.7,65.3,28.05,SSE,158,0.0,0.0,95,0.00,,---,0.00,VWS V14.01,2013-07-06 12:15:00,
2013-07-06 08:20:00,66.7,65.3,28.05,NNE,22,2.0,2.0,95,0.00,,---,0.00,VWS V14.01,2013-07-06 12:20:00,
2013-07-06 08:25:00,66.7,65.3,28.08,ENE,68,0.0,0.0,95,0.00,,---,0.00,VWS V14.01,2013-07-06 12:25:00,
2013-07-06 08:30:00,66.9,65.4,28.08,SE,135,3.1,3.1,95,0.00,,---,0.00,VWS V14.01,2013-07-06 12:30:00,
2013-07-06 08:35:00,66.9,65.4,28.08,South,180,0.0,1.6,95,0.00,,---,0.00,VWS V14.01,2013-07-06 12:35:00,
2013-07-06 08:40:00,66.9,65.4,28.08,SSE,158,0.0,1.6,95,0.00,,---,0.00,VWS V14.01,2013-07-06 12:40:00,
2013-07-06 08:45:00,66.9,65.4,28.08,West,270,0.0,2.7,95,0.00,,---,0.00,VWS V14.01,2013-07-06 12:45:00,
2013-07-06 08:50:00,66.9,65.4,28.08,NW,315,0.0,0.9,95,0.00,,---,0.00,VWS V14.01,2013-07-06 12:50:00,
2013-07-06 08:55:00,66.9,65.4,28.08,SSE,158,0.0,0.0,95,0.00,,---,0.00,VWS V14.01,2013-07-06 12:55:00,
2013-07-06 09:00:00,67.1,65.6,28.08,SE,135,0.0,0.0,95,0.00,,---,0.00,VWS V14.01,2013-07-06 13:00:00,
2013-07-06 09:05:00,67.1,65.6,28.08,ENE,68,0.0,1.3,95,0.00,,---,0.00,VWS V14.01,2013-07-06 13:05:00,
2013-07-06 09:11:00,66.9,65.4,28.08,NW,315,0.0,0.0,95,0.00,,---,0.00,VWS V14.01,2013-07-06 13:11:00,
2013-07-06 09:16:00,66.9,65.4,28.08,NE,45,0.9,0.9,95,0.00,,---,0.00,VWS V14.01,2013-07-06 13:16:00,
2013-07-06 09:21:00,66.9,65.4,28.08,SSE,158,0.0,0.9,95,0.00,,---,0.00,VWS V14.01,2013-07-06 13:21:00,
2013-07-06 09:26:00,67.1,65.6,28.08,ENE,68,0.0,0.0,95,0.00,,---,0.00,VWS V14.01,2013-07-06 13:26:00,
2013-07-06 09:31:00,67.1,65.6,28.08,ESE,112,0.9,1.3,95,0.00,,---,0.00,VWS V14.01,2013-07-06 13:31:00,
2013-07-06 09:36:00,67.1,65.6,28.08,ESE,112,0.0,1.1,95,0.00,,---,0.00,VWS V14.01,2013-07-06 13:36:00,
2013-07-06 09:41:00,67.1,65.6,28.08,NNE,22,1.1,1.1,95,0.00,,---,0.00,VWS V14.01,2013-07-06 13:41:00,
2013-07-06 09:46:00,67.1,65.6,28.08,NNE,22,0.0,0.9,95,0.00,,---,0.00,VWS V14.01,2013-07-06 13:46:00,
2013-07-06 09:51:00,67.1,65.6,28.08,SSW,202,0.0,1.1,95,0.00,,---,0.00,VWS V14.01,2013-07-06 13:51:00,
2013-07-06 09:56:00,67.1,65.6,28.08,ENE,68,0.0,0.0,95,0.00,,---,0.00,VWS V14.01,2013-07-06 13:56:00,
2013-07-06 10:01:00,67.1,65.6,28.08,ENE,68,0.0,0.9,95,0.00,,---,0.00,VWS V14.01,2013-07-06 14:01:00,
2013-07-06 10:07:00,67.1,65.6,28.08,ENE,68,0.0,0.0,95,0.00,,---,0.00,VWS V14.01,2013-07-06 14:07:00,
2013-07-06 10:12:00,67.3,65.8,28.08,ESE,112,0.0,0.0,95,0.00,,---,0.00,VWS V14.01,2013-07-06 14:12:00,
2013-07-06 10:17:00,67.3,65.8,28.08,South,180,0.0,0.0,95,0.00,,---,0.00,VWS V14.01,2013-07-06 14:17:00,
2013-07-06 10:22:00,67.5,66.0,28.08,ESE,112,0.0,0.0,95,0.00,,---,0.00,VWS V14.01,2013-07-06 14:22:00,
2013-07-06 10:27:00,67.5,66.0,28.08,ESE,112,0.0,0.0,95,0.00,,---,0.00,VWS V14.01,2013-07-06 14:27:00,
2013-07-06 10:32:00,67.6,66.2,28.08,SSE,158,0.0,0.0,95,0.00,,---,0.00,VWS V14.01,2013-07-06 14:32:00,
2013-07-06 10:37:00,67.6,66.2,28.08,SSE,158,0.0,0.0,95,0.00,,---,0.00,VWS V14.01,2013-07-06 14:37:00,
2013-07-06 10:42:00,67.8,66.3,28.08,ESE,112,0.0,0.0,95,0.00,,---,0.00,VWS V14.01,2013-07-06 14:42:00,
2013-07-06 10:47:00,68.0,66.5,28.08,East,90,0.0,0.0,95,0.00,,---,0.00,VWS V14.01,2013-07-06 14:47:00,
2013-07-06 10:52:00,68.0,66.5,28.05,North,0,0.0,0.0,95,0.00,,---,0.00,VWS V14.01,2013-07-06 14:52:00,
2013-07-06 10:57:00,68.0,66.5,28.05,NNW,338,0.0,0.0,95,0.00,,---,0.00,VWS V14.01,2013-07-06 14:57:00,
2013-07-06 11:02:00,68.0,66.5,28.05,NW,315,0.0,0.0,95,0.00,,---,0.00,VWS V14.01,2013-07-06 15:02:00,
2013-07-06 11:07:00,67.8,66.3,28.08,NNE,22,0.0,0.0,95,0.00,,---,0.00,VWS V14.01,2013-07-06 15:07:00,
2013-07-06 11:12:00,67.6,66.2,28.08,West,270,0.0,0.0,95,0.00,,---,0.00,VWS V14.01,2013-07-06 15:12:00,
2013-07-06 11:17:00,67.5,66.0,28.08,West,270,0.0,0.0,95,0.00,,---,0.00,VWS V14.01,2013-07-06 15:17:00,
2013-07-06 11:22:00,67.3,65.8,28.08,West,270,0.0,0.0,95,0.00,,---,0.00,VWS V14.01,2013-07-06 15:22:00,
2013-07-06 11:28:00,67.3,65.8,28.08,West,270,0.0,0.0,95,0.00,,---,0.00,VWS V14.01,2013-07-06 15:28:00,
2013-07-06 11:33:00,67.1,65.6,28.08,WSW,248,0.0,0.0,95,0.00,,---,0.00,VWS V14.01,2013-07-06 15:33:00,
2013-07-06 11:38:00,67.1,65.6,28.08,West,270,0.0,0.0,95,0.00,,---,0.00,VWS V14.01,2013-07-06 15:38:00,
2013-07-06 11:43:00,67.1,65.6,28.08,West,270,0.0,0.0,95,0.00,,---,0.00,VWS V14.01,2013-07-06 15:43:00,
2013-07-06 11:48:00,67.1,65.6,28.08,West,270,0.0,0.0,95,0.00,,---,0.00,VWS V14.01,2013-07-06 15:48:00,
2013-07-06 11:53:00,67.1,65.6,28.08,West,270,0.0,0.0,95,0.00,,---,0.00,VWS V14.01,2013-07-06 15:53:00,
2013-07-06 11:58:00,67.1,65.6,28.08,West,270,0.0,0.0,95,0.00,,---,0.00,VWS V14.01,2013-07-06 15:58:00,
2013-07-06 12:03:00,66.9,65.4,28.08,West,270,0.0,0.0,95,0.00,,---,0.00,VWS V14.01,2013-07-06 16:03:00,
2013-07-06 12:08:00,66.9,65.4,28.08,West,270,0.0,0.0,95,0.00,,---,0.00,VWS V14.01,2013-07-06 16:08:00,
2013-07-06 12:13:00,66.9,65.4,28.08,West,270,0.0,0.0,95,0.00,,---,0.00,VWS V14.01,2013-07-06 16:13:00,
2013-07-06 12:19:00,66.9,65.4,28.08,SSW,202,0.9,2.0,95,0.00,,---,0.00,VWS V14.01,2013-07-06 16:19:00,
2013-07-06 12:24:00,66.7,65.3,28.08,SW,225,0.0,0.0,95,0.00,,---,0.00,VWS V14.01,2013-07-06 16:24:00,
2013-07-06 12:29:00,66.6,65.1,28.08,SW,225,0.0,0.0,95,0.00,,---,0.00,VWS V14.01,2013-07-06 16:29:00,
2013-07-06 12:34:00,66.6,65.1,28.08,WNW,292,0.0,0.0,95,0.00,,---,0.00,VWS V14.01,2013-07-06 16:34:00,
2013-07-06 12:39:00,66.6,65.1,28.08,WNW,292,0.0,0.0,95,0.00,,---,0.00,VWS V14.01,2013-07-06 16:39:00,
2013-07-06 12:44:00,66.7,65.3,28.08,WNW,292,0.0,0.0,95,0.00,,---,0.00,VWS V14.01,2013-07-06 16:44:00,
2013-07-06 12:49:00,66.9,65.4,28.08,WNW,292,0.0,0.0,95,0.00,,---,0.00,VWS V14.01,2013-07-06 16:49:00,
2013-07-06 12:54:00,67.1,65.6,28.08,WNW,292,0.0,0.9,95,0.00,,---,0.00,VWS V14.01,2013-07-06 16:54:00,
2013-07-06 12:59:00,67.3,65.8,28.08,WNW,292,0.0,0.0,95,0.00,,---,0.00,VWS V14.01,2013-07-06 16:59:00,
2013-07-06 13:04:00,67.3,65.8,28.08,WNW,292,0.0,0.0,95,0.00,,---,0.00,VWS V14.01,2013-07-06 17:04:00,
2013-07-06 13:09:00,67.5,66.0,28.08,WNW,292,0.0,0.0,95,0.00,,---,0.00,VWS V14.01,2013-07-06 17:09:00,
2013-07-06 13:15:00,67.6,66.2,28.08,WNW,292,0.0,1.1,95,0.00,,---,0.00,VWS V14.01,2013-07-06 17:15:00,
2013-07-06 13:20:00,67.8,66.3,28.08,WNW,292,0.0,0.0,95,0.00,,---,0.00,VWS V14.01,2013-07-06 17:20:00,
2013-07-06 13:25:00,67.8,66.3,28.05,WNW,292,0.0,0.0,95,0.00,,---,0.00,VWS V14.01,2013-07-06 17:25:00,
2013-07-06 13:30:00,67.8,66.3,28.05,WNW,292,0.0,1.3,95,0.00,,---,0.00,VWS V14.01,2013-07-06 17:30:00,
2013-07-06 13:35:00,67.8,66.3,28.05,WNW,292,0.0,0.0,95,0.00,,---,0.00,VWS V14.01,2013-07-06 17:35:00,
2013-07-06 13:40:00,67.6,66.2,28.08,WNW,292,0.0,0.0,95,0.00,,---,0.00,VWS V14.01,2013-07-06 17:40:00,
2013-07-06 13:46:00,67.6,66.2,28.08,WNW,292,0.0,0.0,95,0.00,,---,0.00,VWS V14.01,2013-07-06 17:46:00,
2013-07-06 13:51:00,67.6,66.2,28.08,WNW,292,0.0,0.0,95,0.00,,---,0.00,VWS V14.01,2013-07-06 17:51:00,
2013-07-06 13:56:00,67.8,66.3,28.08,WNW,292,0.0,0.0,95,0.00,,---,0.00,VWS V14.01,2013-07-06 17:56:00,
2013-07-06 14:02:00,67.8,66.3,28.08,WNW,292,0.0,0.0,95,0.00,,---,0.00,VWS V14.01,2013-07-06 18:02:00,
2013-07-06 14:07:00,67.8,66.3,28.08,WNW,292,0.0,0.0,95,0.00,,---,0.00,VWS V14.01,2013-07-06 18:07:00,
2013-07-06 14:12:00,68.0,66.5,28.08,WNW,292,0.0,0.0,95,0.00,,---,0.00,VWS V14.01,2013-07-06 18:12:00,
2013-07-06 14:17:00,68.0,66.5,28.08,WNW,292,0.0,0.0,95,0.00,,---,0.00,VWS V14.01,2013-07-06 18:17:00,
2013-07-06 14:22:00,68.0,66.5,28.08,WNW,292,0.0,0.0,95,0.00,,---,0.00,VWS V14.01,2013-07-06 18:22:00,
2013-07-06 14:27:00,68.0,66.5,28.08,WNW,292,0.0,0.0,95,0.00,,---,0.00,VWS V14.01,2013-07-06 18:27:00,
2013-07-06 14:32:00,68.0,66.5,28.08,WNW,292,0.0,0.0,95,0.00,,---,0.00,VWS V14.01,2013-07-06 18:32:00,
2013-07-06 14:38:00,68.2,66.7,28.05,WNW,292,0.0,0.0,95,0.00,,---,0.00,VWS V14.01,2013-07-06 18:38:00,
2013-07-06 14:43:00,68.4,66.6,28.05,WNW,292,0.0,0.0,94,0.00,,---,0.00,VWS V14.01,2013-07-06 18:43:00,
2013-07-06 14:48:00,68.4,66.6,28.05,WNW,292,0.0,0.0,94,0.00,,---,0.00,VWS V14.01,2013-07-06 18:48:00,
2013-07-06 14:53:00,68.5,66.8,28.05,WNW,292,0.0,0.0,94,0.00,,---,0.00,VWS V14.01,2013-07-06 18:53:00,
2013-07-06 14:59:00,68.2,66.4,28.05,WNW,292,0.0,0.0,94,0.00,,---,0.00,VWS V14.01,2013-07-06 18:59:00,
2013-07-06 15:04:00,68.2,66.4,28.05,WNW,292,0.0,0.0,94,0.00,,---,0.00,VWS V14.01,2013-07-06 19:04:00,
2013-07-06 15:09:00,68.0,66.2,28.05,WNW,292,0.0,0.0,94,0.00,,---,0.00,VWS V14.01,2013-07-06 19:09:00,
2013-07-06 15:14:00,68.2,66.4,28.05,WNW,292,0.0,0.0,94,0.00,,---,0.00,VWS V14.01,2013-07-06 19:14:00,
2013-07-06 15:19:00,68.2,66.4,28.05,WNW,292,0.0,0.0,94,0.00,,---,0.00,VWS V14.01,2013-07-06 19:19:00,
2013-07-06 15:24:00,68.2,66.4,28.08,WNW,292,0.0,0.0,94,0.00,,---,0.00,VWS V14.01,2013-07-06 19:24:00,
2013-07-06 15:30:00,68.2,66.4,28.08,WNW,292,0.0,0.0,94,0.00,,---,0.00,VWS V14.01,2013-07-06 19:30:00,
2013-07-06 15:35:00,68.2,66.4,28.05,WNW,292,0.0,0.0,94,0.00,,---,0.00,VWS V14.01,2013-07-06 19:35:00,
2013-07-06 15:40:00,68.0,66.5,28.05,WNW,292,0.0,0.0,95,0.00,,---,0.00,VWS V14.01,2013-07-06 19:40:00,
2013-07-06 15:45:00,68.0,66.5,28.05,WNW,292,0.0,0.0,95,0.00,,---,0.00,VWS V14.01,2013-07-06 19:45:00,
2013-07-06 15:50:00,68.0,66.5,28.05,WNW,292,0.0,0.9,95,0.00,,---,0.00,VWS V14.01,2013-07-06 19:50:00,
2013-07-06 15:55:00,68.0,66.5,28.05,WNW,292,0.0,0.0,95,0.00,,---,0.00,VWS V14.01,2013-07-06 19:55:00,
2013-07-06 16:01:00,68.2,66.7,28.05,WNW,292,0.0,0.0,95,0.00,,---,0.00,VWS V14.01,2013-07-06 20:01:00,
2013-07-06 16:06:00,68.2,66.7,28.05,WNW,292,0.0,0.0,95,0.00,,---,0.00,VWS V14.01,2013-07-06 20:06:00,
2013-07-06 16:11:00,68.2,66.7,28.05,WNW,292,0.0,0.0,95,0.00,,---,0.00,VWS V14.01,2013-07-06 20:11:00,
2013-07-06 16:16:00,68.4,66.9,28.05,WNW,292,0.0,0.0,95,0.00,,---,0.00,VWS V14.01,2013-07-06 20:16:00,
2013-07-06 16:21:00,68.5,67.1,28.05,WNW,292,0.0,0.0,95,0.00,,---,0.00,VWS V14.01,2013-07-06 20:21:00,
2013-07-06 16:27:00,68.7,67.2,28.05,WNW,292,0.0,0.9,95,0.00,,---,0.00,VWS V14.01,2013-07-06 20:27:00,
2013-07-06 16:32:00,68.7,67.2,28.05,WNW,292,0.0,0.0,95,0.00,,---,0.00,VWS V14.01,2013-07-06 20:32:00,
2013-07-06 16:37:00,69.1,67.6,28.05,WNW,292,0.0,0.0,95,0.00,,---,0.00,VWS V14.01,2013-07-06 20:37:00,
2013-07-06 16:42:00,68.9,67.4,28.05,WNW,292,0.0,0.0,95,0.00,,---,0.00,VWS V14.01,2013-07-06 20:42:00,
2013-07-06 16:47:00,68.7,67.2,28.05,WNW,292,0.0,0.0,95,0.00,,---,0.00,VWS V14.01,2013-07-06 20:47:00,
2013-07-06 16:52:00,68.7,67.2,28.05,WNW,292,0.0,0.0,95,0.00,,---,0.00,VWS V14.01,2013-07-06 20:52:00,
2013-07-06 16:57:00,68.5,66.8,28.05,WNW,292,0.0,0.0,94,0.00,,---,0.00,VWS V14.01,2013-07-06 20:57:00,
2013-07-06 17:02:00,68.4,66.6,28.05,WNW,292,0.0,0.0,94,0.00,,---,0.00,VWS V14.01,2013-07-06 21:02:00,
2013-07-06 17:07:00,68.5,67.1,28.05,WNW,292,0.0,0.0,95,0.00,,---,0.00,VWS V14.01,2013-07-06 21:07:00,
2013-07-06 17:12:00,68.4,66.9,28.05,WNW,292,0.0,0.0,95,0.00,,---,0.00,VWS V14.01,2013-07-06 21:12:00,
2013-07-06 17:17:00,68.2,66.7,28.05,WNW,292,0.0,0.0,95,0.00,,---,0.00,VWS V14.01,2013-07-06 21:17:00,
2013-07-06 17:23:00,68.0,66.2,28.05,WNW,292,0.0,0.0,94,0.00,,---,0.00,VWS V14.01,2013-07-06 21:23:00,
2013-07-06 17:28:00,68.0,66.2,28.05,WNW,292,0.0,0.0,94,0.00,,---,0.00,VWS V14.01,2013-07-06 21:28:00,
2013-07-06 17:33:00,67.8,66.3,28.05,WNW,292,0.0,0.0,95,0.00,,---,0.00,VWS V14.01,2013-07-06 21:33:00,
2013-07-06 17:38:00,67.8,66.3,28.05,WNW,292,0.0,0.0,95,0.00,,---,0.00,VWS V14.01,2013-07-06 21:38:00,
2013-07-06 17:44:00,67.6,66.2,28.05,WNW,292,0.0,0.0,95,0.00,,---,0.00,VWS V14.01,2013-07-06 21:44:00,
2013-07-06 17:49:00,67.6,66.2,28.05,WNW,292,0.0,0.0,95,0.00,,---,0.00,VWS V14.01,2013-07-06 21:49:00,
2013-07-06 17:54:00,67.5,66.0,28.05,WNW,292,0.0,0.0,95,0.00,,---,0.00,VWS V14.01,2013-07-06 21:54:00,
2013-07-06 17:59:00,67.3,65.8,28.05,WNW,292,0.0,0.0,95,0.00,,---,0.00,VWS V14.01,2013-07-06 21:59:00,
2013-07-06 18:04:00,67.5,66.0,28.05,WNW,292,0.0,0.0,95,0.00,,---,0.00,VWS V14.01,2013-07-06 22:04:00,
2013-07-06 18:09:00,67.5,66.3,28.05,WNW,292,0.0,0.0,96,0.00,,---,0.00,VWS V14.01,2013-07-06 22:09:00,
2013-07-06 18:14:00,67.5,66.3,28.05,WNW,292,0.0,0.0,96,0.00,,---,0.00,VWS V14.01,2013-07-06 22:14:00,
2013-07-06 18:19:00,67.3,66.1,28.05,WNW,292,0.0,0.0,96,0.00,,---,0.00,VWS V14.01,2013-07-06 22:19:00,
2013-07-06 18:25:00,67.3,65.8,28.05,WNW,292,0.0,0.0,95,0.00,,---,0.00,VWS V14.01,2013-07-06 22:25:00,
2013-07-06 18:30:00,67.3,65.8,28.05,WNW,292,0.0,0.0,95,0.00,,---,0.00,VWS V14.01,2013-07-06 22:30:00,
2013-07-06 18:35:00,67.1,65.6,28.05,WNW,292,0.0,0.0,95,0.00,,---,0.00,VWS V14.01,2013-07-06 22:35:00,
2013-07-06 18:40:00,66.9,65.4,28.05,WNW,292,0.0,0.0,95,0.00,,---,0.00,VWS V14.01,2013-07-06 22:40:00,
2013-07-06 18:46:00,66.7,65.3,28.05,WNW,292,0.0,0.0,95,0.00,,---,0.00,VWS V14.01,2013-07-06 22:46:00,
2013-07-06 18:52:00,66.7,65.3,28.02,WNW,292,0.0,0.0,95,0.00,,---,0.00,VWS V14.01,2013-07-06 22:52:00,
2013-07-06 18:57:00,66.7,65.3,28.02,WNW,292,0.0,0.0,95,0.00,,---,0.00,VWS V14.01,2013-07-06 22:57:00,
2013-07-06 19:02:00,66.7,65.3,28.02,WNW,292,0.0,0.0,95,0.00,,---,0.00,VWS V14.01,2013-07-06 23:02:00,
2013-07-06 19:08:00,66.6,65.1,28.02,WNW,292,0.0,0.0,95,0.00,,---,0.00,VWS V14.01,2013-07-06 23:08:00,
2013-07-06 19:13:00,66.7,65.6,28.02,WNW,292,0.0,0.0,96,0.00,,---,0.00,VWS V14.01,2013-07-06 23:13:00,
2013-07-06 19:19:00,66.9,65.8,28.02,WNW,292,0.0,0.0,96,0.00,,---,0.00,VWS V14.01,2013-07-06 23:19:00,
2013-07-06 19:24:00,66.9,65.8,28.02,WNW,292,0.0,0.0,96,0.00,,---,0.00,VWS V14.01,2013-07-06 23:24:00,
2013-07-06 19:29:00,66.9,65.8,28.02,WNW,292,0.0,0.0,96,0.00,,---,0.00,VWS V14.01,2013-07-06 23:29:00,
2013-07-06 19:34:00,66.9,65.8,28.02,WNW,292,0.0,0.0,96,0.00,,---,0.00,VWS V14.01,2013-07-06 23:34:00,
2013-07-06 19:39:00,66.9,65.4,28.05,WNW,292,0.0,0.0,95,0.00,,---,0.00,VWS V14.01,2013-07-06 23:39:00,
2013-07-06 19:44:00,66.9,65.4,28.05,WNW,292,0.0,0.0,95,0.00,,---,0.00,VWS V14.01,2013-07-06 23:44:00,
2013-07-06 19:49:00,66.7,65.3,28.05,WNW,292,0.0,0.9,95,0.00,,---,0.00,VWS V14.01,2013-07-06 23:49:00,
2013-07-06 19:54:00,66.7,65.3,28.05,NW,315,0.0,0.0,95,0.00,,---,0.00,VWS V14.01,2013-07-06 23:54:00,
2013-07-06 19:59:00,66.7,65.3,28.05,NW,315,0.0,0.0,95,0.00,,---,0.00,VWS V14.01,2013-07-06 23:59:00,
2013-07-06 20:05:00,66.7,65.3,28.05,NNW,338,0.9,1.6,95,0.00,,---,0.00,VWS V14.01,2013-07-07 00:05:00,
2013-07-06 20:10:00,66.6,65.1,28.05,NNW,338,0.0,0.0,95,0.00,,---,0.00,VWS V14.01,2013-07-07 00:10:00,
2013-07-06 20:15:00,66.6,65.1,28.05,North,0,0.0,0.0,95,0.00,,---,0.00,VWS V14.01,2013-07-07 00:15:00,
2013-07-06 20:20:00,66.4,64.9,28.05,WNW,292,0.0,0.0,95,0.00,,---,0.00,VWS V14.01,2013-07-07 00:20:00,
2013-07-06 20:25:00,66.4,64.9,28.05,NW,315,0.0,0.0,95,0.00,,---,0.00,VWS V14.01,2013-07-07 00:25:00,
2013-07-06 20:30:00,66.4,64.9,28.05,NNW,338,0.0,0.0,95,0.00,,---,0.00,VWS V14.01,2013-07-07 00:30:00,
2013-07-06 20:35:00,66.2,64.7,28.05,NNW,338,0.0,0.0,95,0.00,,---,0.00,VWS V14.01,2013-07-07 00:35:00,
2013-07-06 20:40:00,66.2,64.7,28.02,NW,315,0.0,0.0,95,0.00,,---,0.00,VWS V14.01,2013-07-07 00:40:00,
2013-07-06 20:46:00,66.2,64.7,28.02,NW,315,0.0,0.0,95,0.00,,---,0.00,VWS V14.01,2013-07-07 00:46:00,
2013-07-06 20:51:00,66.2,64.7,28.02,NW,315,0.0,0.0,95,0.00,,---,0.00,VWS V14.01,2013-07-07 00:51:00,
2013-07-06 20:56:00,66.2,64.7,28.02,NW,315,0.0,0.0,95,0.00,,---,0.00,VWS V14.01,2013-07-07 00:56:00,
2013-07-06 21:01:00,66.2,64.7,28.02,NW,315,0.0,0.0,95,0.00,,---,0.00,VWS V14.01,2013-07-07 01:01:00,
2013-07-06 21:07:00,66.2,64.7,28.02,NW,315,0.0,0.0,95,0.00,,---,0.00,VWS V14.01,2013-07-07 01:07:00,
2013-07-06 21:12:00,66.2,64.7,28.02,NW,315,0.0,0.0,95,0.00,,---,0.00,VWS V14.01,2013-07-07 01:12:00,
2013-07-06 21:17:00,66.0,64.6,28.02,NNW,338,0.0,0.0,95,0.00,,---,0.00,VWS V14.01,2013-07-07 01:17:00,
2013-07-06 21:22:00,66.0,64.6,28.02,NNW,338,0.0,0.0,95,0.00,,---,0.00,VWS V14.01,2013-07-07 01:22:00,
2013-07-06 21:27:00,66.0,64.6,28.02,NE,45,0.0,0.0,95,0.00,,---,0.00,VWS V14.01,2013-07-07 01:27:00,
2013-07-06 21:32:00,66.0,64.6,28.02,NE,45,0.0,0.0,95,0.00,,---,0.00,VWS V14.01,2013-07-07 01:32:00,
2013-07-06 21:38:00,66.0,64.6,28.02,NE,45,0.0,0.0,95,0.00,,---,0.00,VWS V14.01,2013-07-07 01:38:00,
2013-07-06 21:43:00,66.0,64.6,28.02,South,180,0.0,0.0,95,0.00,,---,0.00,VWS V14.01,2013-07-07 01:43:00,
2013-07-06 21:48:00,66.0,64.6,28.02,WNW,292,0.0,0.0,95,0.00,,---,0.00,VWS V14.01,2013-07-07 01:48:00,
2013-07-06 21:53:00,66.0,64.6,28.02,North,0,0.0,0.0,95,0.00,,---,0.00,VWS V14.01,2013-07-07 01:53:00,
2013-07-06 21:58:00,66.0,64.6,28.02,NW,315,0.0,0.0,95,0.00,,---,0.00,VWS V14.01,2013-07-07 01:58:00,
2013-07-06 22:03:00,66.0,64.6,28.02,NW,315,0.0,0.9,95,0.00,,---,0.00,VWS V14.01,2013-07-07 02:03:00,
2013-07-06 22:08:00,66.0,64.6,28.02,WNW,292,0.0,0.0,95,0.00,,---,0.00,VWS V14.01,2013-07-07 02:08:00,
2013-07-06 22:13:00,66.0,64.6,28.02,NNW,338,2.7,2.7,95,0.00,,---,0.00,VWS V14.01,2013-07-07 02:13:00,
2013-07-06 22:19:00,66.0,64.6,28.02,NNE,22,0.0,0.0,95,0.00,,---,0.00,VWS V14.01,2013-07-07 02:19:00,
2013-07-06 22:24:00,66.0,64.6,28.02,ENE,68,0.0,1.1,95,0.00,,---,0.00,VWS V14.01,2013-07-07 02:24:00,
2013-07-06 22:29:00,66.0,64.6,28.02,West,270,0.0,0.0,95,0.00,,---,0.00,VWS V14.01,2013-07-07 02:29:00,
2013-07-06 22:34:00,66.0,64.6,28.02,ENE,68,1.3,1.3,95,0.00,,---,0.00,VWS V14.01,2013-07-07 02:34:00,
2013-07-06 22:39:00,66.0,64.6,28.05,North,0,0.0,0.0,95,0.00,,---,0.00,VWS V14.01,2013-07-07 02:39:00,
2013-07-06 22:44:00,65.8,64.4,28.05,NNW,338,2.2,2.2,95,0.00,,---,0.00,VWS V14.01,2013-07-07 02:44:00,
2013-07-06 22:50:00,65.8,64.4,28.05,NNW,338,0.0,1.1,95,0.00,,---,0.00,VWS V14.01,2013-07-07 02:50:00,
2013-07-06 22:55:00,65.8,64.4,28.02,NNW,338,1.6,1.6,95,0.00,,---,0.00,VWS V14.01,2013-07-07 02:55:00,
2013-07-06 23:00:00,65.8,64.4,28.02,ENE,68,0.0,1.6,95,0.00,,---,0.00,VWS V14.01,2013-07-07 03:00:00,
2013-07-06 23:05:00,66.0,64.6,28.02,SSE,158,0.0,0.9,95,0.00,,---,0.00,VWS V14.01,2013-07-07 03:05:00,
2013-07-06 23:10:00,66.0,64.6,28.05,North,0,1.3,2.2,95,0.00,,---,0.00,VWS V14.01,2013-07-07 03:10:00,
2013-07-06 23:15:00,66.0,64.6,28.05,North,0,0.0,0.9,95,0.00,,---,0.00,VWS V14.01,2013-07-07 03:15:00,
2013-07-06 23:21:00,65.8,64.4,28.05,NNW,338,3.6,3.6,95,0.00,,---,0.00,VWS V14.01,2013-07-07 03:21:00,
2013-07-06 23:26:00,65.8,64.4,28.05,West,270,0.0,0.0,95,0.00,,---,0.00,VWS V14.01,2013-07-07 03:26:00,
2013-07-06 23:31:00,65.8,64.4,28.05,NW,315,0.0,0.0,95,0.00,,---,0.00,VWS V14.01,2013-07-07 03:31:00,
2013-07-06 23:36:00,65.8,64.4,28.05,NW,315,0.0,0.0,95,0.00,,---,0.00,VWS V14.01,2013-07-07 03:36:00,
2013-07-06 23:42:00,65.8,64.4,28.05,NW,315,0.0,0.0,95,0.00,,---,0.00,VWS V14.01,2013-07-07 03:42:00,
2013-07-06 23:47:00,65.8,64.4,28.05,NW,315,0.0,0.0,95,0.00,,---,0.00,VWS V14.01,2013-07-07 03:47:00,
2013-07-06 23:52:00,65.8,64.4,28.05,NW,315,1.1,1.1,95,0.00,,---,0.00,VWS V14.01,2013-07-07 03:52:00,
2013-07-06 23:58:00,65.8,64.4,28.05,NE,45,0.0,0.9,95,0.00,,---,0.00,VWS V14.01,2013-07-07 03:58:00,